Em Athens — V7US8 — position and weather

sailwx.info

Track history (hours):
 
Tides and Currents Weather Stations Pressure Air Temp Water Temp Dewpoint Dewpoint Depression Visibility Wind Speed Wind Dir Waves Ship Positions

Em Athens

Last reported at 2015-Aug-28 20:27 UTC. Time now 2015-Aug-29 03:12 UTC.
Position N 31°11' E 029°47'.

Length 207 m; draft 8.7 m.

Type: Ship (hazmat cat C). MMSI: 538004019.

Date/timePositionNaut miles runAvg speedWind from/ knotsBaromVisibWave heightAir tempDewpointWater temp
2015-Aug-28 20:27N 31°11' E 029°47'4 5.0
2015-Aug-28 19:33N 31°11' E 029°52'0 0.2
2015-Aug-28 18:31N 31°11' E 029°52'5 0.3
2015-Aug-27 23:29N 31°13' E 029°46'0 0.0
2015-Aug-27 22:05N 31°13' E 029°46'0 0.0
2015-Aug-27 21:32N 31°13' E 029°46'0 0.0
2015-Aug-27 20:32N 31°13' E 029°46'0 0.0
2015-Aug-27 18:32N 31°13' E 029°46'0 0.0
2015-Aug-27 17:32N 31°13' E 029°46'0 0.0
2015-Aug-27 16:29N 31°13' E 029°46'0 0.0
2015-Aug-27 14:14N 31°13' E 029°47'  
2015-Aug-23 08:20N 36°10' E 015°13'1815.7
2015-Aug-23 07:12N 36°17' E 014°53'1015.8
2015-Aug-23 06:33N 36°21' E 014°41'1615.6
2015-Aug-23 05:33N 36°28' E 014°24'1515.5
2015-Aug-23 04:33N 36°37' E 014°08'1615.9
2015-Aug-23 03:33N 36°45' E 013°51'1616.0
2015-Aug-23 02:33N 36°54' E 013°34'1716.0
2015-Aug-23 01:31N 37°02' E 013°16'1515.5
2015-Aug-23 00:33N 37°09' E 012°60'1515.5
2015-Aug-22 23:33N 37°16' E 012°42'4615.4
2015-Aug-22 20:33N 37°44' E 011°55'7815.6
2015-Aug-22 15:33N 38°26' E 010°32'1616.1
2015-Aug-22 14:33N 38°34' E 010°15'1816.1
2015-Aug-22 13:26N 38°44' E 009°55'1715.6
2015-Aug-22 12:22N 38°53' E 009°37'1215.3
2015-Aug-22 11:33N 38°59' E 009°24'1312.7
2015-Aug-22 10:33N 39°07' E 009°10'8 7.9
2015-Aug-22 09:33N 39°13' E 009°04'0 0.0
2015-Aug-22 08:32N 39°13' E 009°04'0 0.0
2015-Aug-22 07:32N 39°13' E 009°04'0 0.0
2015-Aug-22 06:32N 39°13' E 009°04'0 0.0
2015-Aug-22 05:32N 39°13' E 009°04'0 0.0
2015-Aug-22 04:32N 39°13' E 009°04'0 0.0
2015-Aug-22 03:32N 39°13' E 009°04'0 0.0
2015-Aug-22 02:32N 39°13' E 009°04'0 0.0
2015-Aug-22 01:32N 39°13' E 009°04'0 0.0
2015-Aug-22 00:32N 39°13' E 009°04'0 0.0
2015-Aug-21 23:32N 39°13' E 009°04'0 0.0
2015-Aug-21 22:32N 39°13' E 009°04'0 0.0
2015-Aug-21 21:32N 39°13' E 009°04'0 0.0
2015-Aug-21 20:32N 39°13' E 009°04'0 0.0
2015-Aug-21 19:32N 39°13' E 009°04'0 0.0
2015-Aug-21 18:32N 39°13' E 009°04'0 0.0
2015-Aug-21 17:32N 39°13' E 009°04'0 0.0
2015-Aug-21 16:32N 39°13' E 009°04'0 0.0
2015-Aug-21 15:29N 39°13' E 009°04'0 0.0
2015-Aug-21 14:32N 39°13' E 009°04'0 0.0
2015-Aug-21 13:23N 39°13' E 009°04'0 0.0
2015-Aug-21 12:32N 39°13' E 009°04'0 0.0
2015-Aug-21 11:32N 39°13' E 009°04'0 0.0
2015-Aug-21 10:32N 39°13' E 009°04'1 0.7
2015-Aug-21 09:33N 39°12' E 009°05'1110.9
2015-Aug-21 08:33N 39°04' E 009°15'1615.9
2015-Aug-21 07:33N 38°59' E 009°34'21716.7
2015-Aug-20 18:33N 40°22' E 013°55'1616.5
2015-Aug-20 17:33N 40°28' E 014°15'6 0.3
2015-Aug-19 21:20N 40°33' E 014°19'1113.7
2015-Aug-19 20:33N 40°44' E 014°18'7 2.1
2015-Aug-19 17:23N 40°50' E 014°17'0 0.0
2015-Aug-19 10:32N 40°50' E 014°17'0 0.0
2015-Aug-19 06:32N 40°50' E 014°17'5 5.4
2015-Aug-19 05:33N 40°46' E 014°14'1312.6
2015-Aug-19 04:31N 40°38' E 014°00'1616.5
2015-Aug-19 03:31N 40°41' E 013°39'  
Track history (hours):
 
Tides and Currents Weather Stations Pressure Air Temp Water Temp Dewpoint Dewpoint Depression Visibility Wind Speed Wind Dir Waves Ship Positions

Em Athens

Last reported at 2015-Aug-28 20:27 UTC. Time now 2015-Aug-29 03:12 UTC.
Position N 31°11' E 029°47'.

Length 207 m; draft 8.7 m.

Type: Ship (hazmat cat C). MMSI: 538004019.

Date/timePositionNaut miles runAvg speedWind from/ knotsBaromVisibWave heightAir tempDewpointWater temp
2015-Aug-28 20:27N 31°11' E 029°47'4 5.0
2015-Aug-28 19:33N 31°11' E 029°52'0 0.2
2015-Aug-28 18:31N 31°11' E 029°52'5 0.3
2015-Aug-27 23:29N 31°13' E 029°46'0 0.0
2015-Aug-27 22:05N 31°13' E 029°46'0 0.0
2015-Aug-27 21:32N 31°13' E 029°46'0 0.0
2015-Aug-27 20:32N 31°13' E 029°46'0 0.0
2015-Aug-27 18:32N 31°13' E 029°46'0 0.0
2015-Aug-27 17:32N 31°13' E 029°46'0 0.0
2015-Aug-27 16:29N 31°13' E 029°46'0 0.0
2015-Aug-27 14:14N 31°13' E 029°47'  
2015-Aug-23 08:20N 36°10' E 015°13'1815.7
2015-Aug-23 07:12N 36°17' E 014°53'1015.8
2015-Aug-23 06:33N 36°21' E 014°41'1615.6
2015-Aug-23 05:33N 36°28' E 014°24'1515.5
2015-Aug-23 04:33N 36°37' E 014°08'1615.9
2015-Aug-23 03:33N 36°45' E 013°51'1616.0
2015-Aug-23 02:33N 36°54' E 013°34'1716.0
2015-Aug-23 01:31N 37°02' E 013°16'1515.5
2015-Aug-23 00:33N 37°09' E 012°60'1515.5
2015-Aug-22 23:33N 37°16' E 012°42'4615.4
2015-Aug-22 20:33N 37°44' E 011°55'7815.6
2015-Aug-22 15:33N 38°26' E 010°32'1616.1
2015-Aug-22 14:33N 38°34' E 010°15'1816.1
2015-Aug-22 13:26N 38°44' E 009°55'1715.6
2015-Aug-22 12:22N 38°53' E 009°37'1215.3
2015-Aug-22 11:33N 38°59' E 009°24'1312.7
2015-Aug-22 10:33N 39°07' E 009°10'8 7.9
2015-Aug-22 09:33N 39°13' E 009°04'0 0.0
2015-Aug-22 08:32N 39°13' E 009°04'0 0.0
2015-Aug-22 07:32N 39°13' E 009°04'0 0.0
2015-Aug-22 06:32N 39°13' E 009°04'0 0.0
2015-Aug-22 05:32N 39°13' E 009°04'0 0.0
2015-Aug-22 04:32N 39°13' E 009°04'0 0.0
2015-Aug-22 03:32N 39°13' E 009°04'0 0.0
2015-Aug-22 02:32N 39°13' E 009°04'0 0.0
2015-Aug-22 01:32N 39°13' E 009°04'0 0.0
2015-Aug-22 00:32N 39°13' E 009°04'0 0.0
2015-Aug-21 23:32N 39°13' E 009°04'0 0.0
2015-Aug-21 22:32N 39°13' E 009°04'0 0.0
2015-Aug-21 21:32N 39°13' E 009°04'0 0.0
2015-Aug-21 20:32N 39°13' E 009°04'0 0.0
2015-Aug-21 19:32N 39°13' E 009°04'0 0.0
2015-Aug-21 18:32N 39°13' E 009°04'0 0.0
2015-Aug-21 17:32N 39°13' E 009°04'0 0.0
2015-Aug-21 16:32N 39°13' E 009°04'0 0.0
2015-Aug-21 15:29N 39°13' E 009°04'0 0.0
2015-Aug-21 14:32N 39°13' E 009°04'0 0.0
2015-Aug-21 13:23N 39°13' E 009°04'0 0.0
2015-Aug-21 12:32N 39°13' E 009°04'0 0.0
2015-Aug-21 11:32N 39°13' E 009°04'0 0.0
2015-Aug-21 10:32N 39°13' E 009°04'1 0.7
2015-Aug-21 09:33N 39°12' E 009°05'1110.9
2015-Aug-21 08:33N 39°04' E 009°15'1615.9
2015-Aug-21 07:33N 38°59' E 009°34'21716.7
2015-Aug-20 18:33N 40°22' E 013°55'1616.5
2015-Aug-20 17:33N 40°28' E 014°15'6 0.3
2015-Aug-19 21:20N 40°33' E 014°19'1113.7
2015-Aug-19 20:33N 40°44' E 014°18'7 2.1
2015-Aug-19 17:23N 40°50' E 014°17'0 0.0
2015-Aug-19 10:32N 40°50' E 014°17'0 0.0
2015-Aug-19 06:32N 40°50' E 014°17'5 5.4
2015-Aug-19 05:33N 40°46' E 014°14'1312.6
2015-Aug-19 04:31N 40°38' E 014°00'1616.5
2015-Aug-19 03:31N 40°41' E 013°39'  

Dump ship's entire track history